Station Historical Data
Daily Summary for January 21, 2018 Units:  Metric    English   Both
« Previous Day
Next Day »
Daily Weekly Monthly Yearly Custom
  High: Low: Average:
Temperature: 5.2 °C -0.6 °C 2.3 °C
Dew Point: 2.4 °C -3.1 °C 0.2 °C
Humidity: 92% 81% 86%
Wind Speed: 8km/h 0km/h 1.9km/h
Wind Gust: 19.3km/h - -
Wind- - SW
Pressure: 1020.9 hPa 1018.2 hPa -
Precipitation: 0 mm    
Historical Graphs
 
 
Tabular Data for January 21, 2018
Time Temperature Dew Point Pressure Wind Wind Speed Wind Gust Humidity Rainfall Rate (Hourly)
00:04 0.5 °C -2.1 °C 1018.2 hPa SW 8 km/h 19.3 km/h 83% 0 mm
00:09 0.5 °C -2.2 °C 1018.2 hPa SW 6.4 km/h 19.3 km/h 82% 0 mm
00:14 0.4 °C -2.3 °C 1018.2 hPa SW 6.4 km/h 12.9 km/h 82% 0 mm
00:19 0.5 °C -2.2 °C 1018.5 hPa WSW 6.4 km/h 12.9 km/h 82% 0 mm
00:24 0.6 °C -2.2 °C 1018.5 hPa WSW 4.8 km/h 11.3 km/h 82% 0 mm
00:29 0.6 °C -2.2 °C 1018.5 hPa WSW 4.8 km/h 11.3 km/h 82% 0 mm
00:34 0.5 °C -2.2 °C 1018.5 hPa WSW 4.8 km/h 11.3 km/h 82% 0 mm
00:44 0.4 °C -2.3 °C 1018.5 hPa WSW 4.8 km/h 11.3 km/h 82% 0 mm
00:49 0.5 °C -2.2 °C 1018.8 hPa WSW 3.2 km/h 11.3 km/h 82% 0 mm
00:59 0.5 °C -2.2 °C 1018.5 hPa SW 6.4 km/h 9.7 km/h 82% 0 mm
01:10 0.6 °C -2.1 °C 1018.8 hPa WSW 4.8 km/h 9.7 km/h 82% 0 mm
01:15 0.7 °C -2 °C 1018.8 hPa WSW 6.4 km/h 14.5 km/h 82% 0 mm
01:20 0.8 °C -1.9 °C 1018.8 hPa WSW 8 km/h 17.7 km/h 82% 0 mm
01:25 0.8 °C -2.1 °C 1018.8 hPa WSW 8 km/h 17.7 km/h 81% 0 mm
01:30 0.8 °C -2.1 °C 1018.8 hPa WSW 6.4 km/h 17.7 km/h 81% 0 mm
01:35 0.8 °C -2.1 °C 1018.8 hPa WSW 6.4 km/h 11.3 km/h 81% 0 mm
01:40 0.6 °C -2.3 °C 1018.5 hPa WSW 8 km/h 12.9 km/h 81% 0 mm
01:45 0.6 °C -2.3 °C 1018.5 hPa WSW 4.8 km/h 14.5 km/h 81% 0 mm
01:50 0.6 °C -2.3 °C 1018.5 hPa WSW 4.8 km/h 14.5 km/h 81% 0 mm
01:55 0.6 °C -2.3 °C 1018.5 hPa WSW 4.8 km/h 12.9 km/h 81% 0 mm
02:00 0.6 °C -2.3 °C 1018.5 hPa WSW 4.8 km/h 9.7 km/h 81% 0 mm
02:05 0.6 °C -2.3 °C 1018.5 hPa SW 6.4 km/h 9.7 km/h 81% 0 mm
02:10 0.6 °C -2.3 °C 1018.8 hPa SW 4.8 km/h 9.7 km/h 81% 0 mm
02:15 0.4 °C -2.5 °C 1018.8 hPa SW 3.2 km/h 6.4 km/h 81% 0 mm
02:20 0.3 °C -2.6 °C 1019.2 hPa SW 4.8 km/h 6.4 km/h 81% 0 mm
02:25 0.2 °C -2.7 °C 1019.2 hPa SW 3.2 km/h 6.4 km/h 81% 0 mm
02:30 0.2 °C -2.7 °C 1019.2 hPa SW 3.2 km/h 8 km/h 81% 0 mm
02:40 0.1 °C -2.8 °C 1019.5 hPa WSW 1.6 km/h 9.7 km/h 81% 0 mm
02:45 0.1 °C -2.8 °C 1019.5 hPa WSW 3.2 km/h 6.4 km/h 81% 0 mm
02:50 0.2 °C -2.7 °C 1019.9 hPa WSW 4.8 km/h 8 km/h 81% 0 mm
03:00 0.4 °C -2.4 °C 1019.9 hPa WSW 6.4 km/h 9.7 km/h 81% 0 mm
03:10 0.4 °C -2.5 °C 1019.9 hPa WSW 6.4 km/h 11.3 km/h 81% 0 mm
03:15 0.4 °C -2.4 °C 1019.9 hPa WSW 6.4 km/h 9.7 km/h 81% 0 mm
03:20 0.3 °C -2.6 °C 1019.5 hPa WSW 3.2 km/h 8 km/h 81% 0 mm
03:25 0.2 °C -2.7 °C 1019.5 hPa WSW 3.2 km/h 8 km/h 81% 0 mm
03:30 0 °C -2.9 °C 1019.5 hPa WSW 3.2 km/h 6.4 km/h 81% 0 mm
03:35 -0.2 °C -2.9 °C 1019.5 hPa WSW 3.2 km/h 6.4 km/h 82% 0 mm
03:40 -0.3 °C -3 °C 1019.5 hPa WSW 3.2 km/h 6.4 km/h 82% 0 mm
03:45 -0.3 °C -3 °C 1019.5 hPa SW 3.2 km/h 11.3 km/h 82% 0 mm
03:50 -0.3 °C -3 °C 1019.5 hPa SW 3.2 km/h 8 km/h 82% 0 mm
03:55 -0.3 °C -2.8 °C 1019.5 hPa SW 4.8 km/h 6.4 km/h 83% 0 mm
04:00 -0.3 °C -2.8 °C 1019.5 hPa SW 3.2 km/h 6.4 km/h 83% 0 mm
04:05 -0.3 °C -2.9 °C 1019.2 hPa SW 3.2 km/h 8 km/h 83% 0 mm
04:10 -0.4 °C -3 °C 1019.2 hPa SW 3.2 km/h 8 km/h 83% 0 mm
04:15 -0.5 °C -3.1 °C 1019.2 hPa SW 3.2 km/h 6.4 km/h 83% 0 mm
04:20 -0.5 °C -3.1 °C 1019.2 hPa SW 3.2 km/h 8 km/h 83% 0 mm
04:25 -0.5 °C -2.9 °C 1019.2 hPa Calm   4.8 km/h 84% 0 mm
04:29 -0.5 °C -2.9 °C 1019.2 hPa SW 1.6 km/h 6.4 km/h 84% 0 mm
04:35 -0.4 °C -2.8 °C 1019.2 hPa SW 1.6 km/h 6.4 km/h 84% 0 mm
04:40 -0.4 °C -2.8 °C 1019.2 hPa SW 3.2 km/h 8 km/h 84% 0 mm
04:45 -0.5 °C -2.9 °C 1019.5 hPa SW 1.6 km/h 8 km/h 84% 0 mm
04:50 -0.5 °C -2.7 °C 1019.5 hPa SW 1.6 km/h 4.8 km/h 85% 0 mm
04:55 -0.6 °C -2.8 °C 1019.5 hPa SW 3.2 km/h 6.4 km/h 85% 0 mm
04:59 -0.6 °C -2.8 °C 1019.5 hPa SW 3.2 km/h 6.4 km/h 85% 0 mm
05:05 -0.6 °C -2.8 °C 1019.9 hPa SW 3.2 km/h 6.4 km/h 85% 0 mm
05:09 -0.4 °C -2.5 °C 1019.9 hPa SW 4.8 km/h 9.7 km/h 86% 0 mm
05:14 -0.4 °C -2.4 °C 1019.9 hPa SW 3.2 km/h 6.4 km/h 86% 0 mm
05:20 -0.3 °C -2.4 °C 1019.5 hPa SW 6.4 km/h 8 km/h 86% 0 mm
05:25 -0.3 °C -2.3 °C 1019.9 hPa SW 1.6 km/h 8 km/h 86% 0 mm
05:30 -0.4 °C -2.4 °C 1019.9 hPa SW 3.2 km/h 4.8 km/h 86% 0 mm
05:34 -0.4 °C -2.4 °C 1019.5 hPa SW 1.6 km/h 4.8 km/h 86% 0 mm
05:40 -0.4 °C -2.5 °C 1019.5 hPa SW 1.6 km/h 6.4 km/h 86% 0 mm
05:45 -0.4 °C -2.3 °C 1019.9 hPa SW 3.2 km/h 9.7 km/h 87% 0 mm
05:50 -0.3 °C -2.2 °C 1019.9 hPa SW 3.2 km/h 9.7 km/h 87% 0 mm
05:55 -0.1 °C -2 °C 1019.9 hPa SW 3.2 km/h 9.7 km/h 87% 0 mm
06:00 0 °C -1.9 °C 1019.5 hPa Calm   8 km/h 87% 0 mm
06:05 0.1 °C -1.8 °C 1019.9 hPa SW 3.2 km/h 9.7 km/h 87% 0 mm
06:09 0.1 °C -1.8 °C 1019.9 hPa SW 3.2 km/h 9.7 km/h 87% 0 mm
06:14 0.1 °C -1.8 °C 1019.9 hPa Calm   6.4 km/h 87% 0 mm
06:19 0.1 °C -1.8 °C 1019.9 hPa SW 1.6 km/h 8 km/h 87% 0 mm
06:24 0.2 °C -1.6 °C 1020.2 hPa Calm   8 km/h 88% 0 mm
06:30 0.2 °C -1.6 °C 1020.2 hPa Calm   8 km/h 88% 0 mm
06:35 0.2 °C -1.6 °C 1020.2 hPa Calm   6.4 km/h 88% 0 mm
06:40 0.2 °C -1.6 °C 1020.2 hPa SW 3.2 km/h 8 km/h 88% 0 mm
06:44 0.2 °C -1.6 °C 1020.2 hPa SW 3.2 km/h 8 km/h 88% 0 mm
06:50 0.2 °C -1.6 °C 1020.2 hPa SW 3.2 km/h 11.3 km/h 88% 0 mm
06:55 0.3 °C -1.5 °C 1020.2 hPa SW 3.2 km/h 11.3 km/h 88% 0 mm
07:00 0.3 °C -1.5 °C 1020.2 hPa SW 3.2 km/h 6.4 km/h 88% 0 mm
07:05 0.2 °C -1.6 °C 1020.2 hPa SW 3.2 km/h 6.4 km/h 88% 0 mm
07:10 0 °C -1.8 °C 1020.5 hPa SW 1.6 km/h 6.4 km/h 88% 0 mm
07:14 -0.1 °C -1.8 °C 1020.5 hPa Calm   6.4 km/h 88% 0 mm
07:19 -0.1 °C -1.8 °C 1020.2 hPa Calm   4.8 km/h 88% 0 mm
07:24 -0.2 °C -1.9 °C 1020.2 hPa SW 3.2 km/h 3.2 km/h 88% 0 mm
07:29 -0.3 °C -2.1 °C 1020.5 hPa Calm   4.8 km/h 88% 0 mm
07:35 -0.5 °C -2.2 °C 1020.5 hPa Calm     88% 0 mm
07:40 -0.6 °C -2.3 °C 1020.5 hPa Calm     88% 0 mm
07:45 -0.5 °C -2.1 °C 1020.5 hPa SW 1.6 km/h 4.8 km/h 89% 0 mm
07:49 -0.2 °C -1.8 °C 1020.5 hPa SW 1.6 km/h 8 km/h 89% 0 mm
07:54 0 °C -1.6 °C 1020.5 hPa SW 3.2 km/h 8 km/h 89% 0 mm
08:00 0.2 °C -1.4 °C 1020.5 hPa SW 3.2 km/h 9.7 km/h 89% 0 mm
08:05 0.3 °C -1.3 °C 1020.5 hPa SW 4.8 km/h 9.7 km/h 89% 0 mm
08:10 0.4 °C -1.2 °C 1020.5 hPa SW 3.2 km/h 8 km/h 89% 0 mm
08:14 0.4 °C -1 °C 1020.5 hPa SW 3.2 km/h 9.7 km/h 90% 0 mm
08:19 0.6 °C -0.9 °C 1020.5 hPa SW 1.6 km/h 9.7 km/h 90% 0 mm
08:24 0.7 °C -0.8 °C 1020.5 hPa SW 4.8 km/h 9.7 km/h 90% 0 mm
08:29 0.8 °C -0.7 °C 1020.5 hPa Calm   8 km/h 90% 0 mm
08:34 0.8 °C -0.6 °C 1020.5 hPa SW 6.4 km/h 6.4 km/h 90% 0 mm
08:40 1 °C -0.4 °C 1020.5 hPa SW 4.8 km/h 12.9 km/h 90% 0 mm
08:45 1.1 °C -0.5 °C 1020.5 hPa SSW 6.4 km/h 8 km/h 89% 0 mm
08:50 1.2 °C -0.2 °C 1020.5 hPa SW 4.8 km/h 9.7 km/h 90% 0 mm
08:54 1.3 °C -0.1 °C 1020.5 hPa SW 3.2 km/h 9.7 km/h 90% 0 mm
08:59 1.4 °C -0.1 °C 1020.5 hPa SW 3.2 km/h 9.7 km/h 90% 0 mm
09:04 1.6 °C -0.1 °C 1020.9 hPa SW 3.2 km/h 8 km/h 89% 0 mm
09:10 1.6 °C 0.2 °C 1020.9 hPa SW 3.2 km/h 8 km/h 90% 0 mm
09:15 1.8 °C 0.4 °C 1020.9 hPa SW 1.6 km/h 4.8 km/h 90% 0 mm
09:20 2 °C 0.6 °C 1020.9 hPa SW 1.6 km/h 4.8 km/h 90% 0 mm
09:25 2.2 °C 0.6 °C 1020.9 hPa SW 1.6 km/h 6.4 km/h 89% 0 mm
09:29 2.3 °C 0.7 °C 1020.9 hPa SW 1.6 km/h 6.4 km/h 89% 0 mm
09:34 2.4 °C 0.8 °C 1020.9 hPa SW 1.6 km/h 4.8 km/h 89% 0 mm
09:39 2.6 °C 0.9 °C 1020.9 hPa Calm   3.2 km/h 89% 0 mm
09:44 2.7 °C 1.1 °C 1020.9 hPa Calm   6.4 km/h 89% 0 mm
09:49 2.8 °C 1.2 °C 1020.9 hPa Calm     89% 0 mm
09:55 2.8 °C 1.1 °C 1020.9 hPa Calm     88% 0 mm
10:00 2.9 °C 1.2 °C 1020.9 hPa SW 1.6 km/h 6.4 km/h 88% 0 mm
10:04 3.1 °C 1.3 °C 1020.9 hPa SW 3.2 km/h 6.4 km/h 88% 0 mm
10:09 3.2 °C 1.4 °C 1020.9 hPa SW 1.6 km/h 4.8 km/h 88% 0 mm
10:14 3.3 °C 1.3 °C 1020.9 hPa SW 3.2 km/h 6.4 km/h 87% 0 mm
10:20 3.4 °C 1.4 °C 1020.9 hPa SW 4.8 km/h 9.7 km/h 87% 0 mm
10:25 3.4 °C 1.5 °C 1020.9 hPa SW 3.2 km/h 9.7 km/h 87% 0 mm
10:30 3.6 °C 1.6 °C 1020.9 hPa SW 3.2 km/h 8 km/h 87% 0 mm
10:34 3.6 °C 1.4 °C 1020.9 hPa SW 4.8 km/h 9.7 km/h 86% 0 mm
10:39 3.6 °C 1.5 °C 1020.5 hPa SW 4.8 km/h 9.7 km/h 86% 0 mm
10:44 3.7 °C 1.6 °C 1020.5 hPa SW 1.6 km/h 6.4 km/h 86% 0 mm
10:49 3.7 °C 1.4 °C 1020.5 hPa SW 3.2 km/h 6.4 km/h 85% 0 mm
10:54 3.8 °C 1.5 °C 1020.5 hPa Calm   6.4 km/h 85% 0 mm
10:59 3.8 °C 1.5 °C 1020.5 hPa Calm   8 km/h 85% 0 mm
11:04 3.8 °C 1.6 °C 1020.5 hPa SW 3.2 km/h 6.4 km/h 85% 0 mm
11:09 3.9 °C 1.6 °C 1020.5 hPa SW 3.2 km/h 8 km/h 85% 0 mm
11:14 4.1 °C 1.6 °C 1020.5 hPa SW 3.2 km/h 8 km/h 84% 0 mm
11:19 4.1 °C 1.7 °C 1020.5 hPa SSW 3.2 km/h 8 km/h 84% 0 mm
11:24 4.1 °C 1.7 °C 1020.2 hPa SSW 1.6 km/h 6.4 km/h 84% 0 mm
11:30 4.1 °C 1.7 °C 1020.2 hPa Calm   4.8 km/h 84% 0 mm
11:35 4.2 °C 1.7 °C 1020.2 hPa Calm   6.4 km/h 84% 0 mm
11:39 4.1 °C 1.7 °C 1020.2 hPa SSW 3.2 km/h 6.4 km/h 84% 0 mm
11:44 4.1 °C 1.7 °C 1019.9 hPa SSW 1.6 km/h 6.4 km/h 84% 0 mm
11:49 4.1 °C 1.7 °C 1019.9 hPa Calm     84% 0 mm
11:54 4.1 °C 1.7 °C 1019.9 hPa Calm   3.2 km/h 84% 0 mm
11:59 4.2 °C 1.7 °C 1019.9 hPa Calm   3.2 km/h 84% 0 mm
12:04 4.2 °C 1.7 °C 1019.9 hPa Calm   3.2 km/h 84% 0 mm
12:09 4.2 °C 1.6 °C 1019.9 hPa Calm     83% 0 mm
12:15 4.3 °C 1.8 °C 1019.5 hPa SSW 3.2 km/h 4.8 km/h 84% 0 mm
12:19 4.4 °C 1.8 °C 1019.9 hPa SSW 1.6 km/h 6.4 km/h 83% 0 mm
12:24 4.4 °C 1.8 °C 1019.9 hPa SSW 3.2 km/h 6.4 km/h 83% 0 mm
12:29 4.4 °C 1.8 °C 1019.5 hPa SW 3.2 km/h 6.4 km/h 83% 0 mm
12:34 4.5 °C 1.9 °C 1019.5 hPa SW 3.2 km/h 6.4 km/h 83% 0 mm
12:40 4.6 °C 1.9 °C 1019.5 hPa SW 3.2 km/h 9.7 km/h 83% 0 mm
12:45 4.6 °C 1.9 °C 1019.2 hPa Calm   9.7 km/h 83% 0 mm
12:49 4.6 °C 1.9 °C 1019.2 hPa SW 3.2 km/h 9.7 km/h 83% 0 mm
12:54 4.6 °C 1.9 °C 1019.2 hPa SW 3.2 km/h 6.4 km/h 83% 0 mm
12:59 4.7 °C 2 °C 1019.2 hPa SW 3.2 km/h 8 km/h 83% 0 mm
13:04 4.6 °C 1.9 °C 1019.2 hPa Calm   4.8 km/h 83% 0 mm
13:09 4.7 °C 2.2 °C 1018.8 hPa SW 1.6 km/h 6.4 km/h 84% 0 mm
13:14 4.8 °C 2.2 °C 1018.8 hPa SW 1.6 km/h 6.4 km/h 83% 0 mm
13:19 4.9 °C 2.3 °C 1018.8 hPa Calm   4.8 km/h 83% 0 mm
13:24 5.1 °C 2.4 °C 1018.5 hPa SW 1.6 km/h 8 km/h 83% 0 mm
13:29 5.2 °C 2.3 °C 1018.5 hPa SW 1.6 km/h 8 km/h 82% 0 mm
13:34 5.2 °C 2.4 °C 1018.8 hPa SW 6.4 km/h 8 km/h 82% 0 mm
13:39 5.2 °C 2.3 °C 1018.5 hPa SW 1.6 km/h 6.4 km/h 82% 0 mm
13:44 5.1 °C 2.2 °C 1018.5 hPa SW 3.2 km/h 8 km/h 82% 0 mm
13:49 4.9 °C 2.1 °C 1018.5 hPa SW 3.2 km/h 6.4 km/h 82% 0 mm
13:54 4.9 °C 2.1 °C 1018.5 hPa SW 3.2 km/h 6.4 km/h 82% 0 mm
13:59 4.9 °C 2.1 °C 1018.5 hPa SW 3.2 km/h 6.4 km/h 82% 0 mm
14:04 4.9 °C 2.1 °C 1018.5 hPa SW 1.6 km/h 4.8 km/h 82% 0 mm
14:09 5 °C 2.2 °C 1018.5 hPa SW 1.6 km/h 4.8 km/h 82% 0 mm
14:15 4.9 °C 2.1 °C 1018.5 hPa SW 1.6 km/h 4.8 km/h 82% 0 mm
14:20 4.9 °C 2.1 °C 1018.5 hPa SW 1.6 km/h 3.2 km/h 82% 0 mm
14:24 4.9 °C 2.1 °C 1018.5 hPa Calm   3.2 km/h 82% 0 mm
14:29 4.8 °C 2 °C 1018.5 hPa Calm     82% 0 mm
14:34 4.9 °C 2.1 °C 1018.5 hPa Calm   1.6 km/h 82% 0 mm
14:39 4.9 °C 2.1 °C 1018.2 hPa Calm     82% 0 mm
14:44 4.9 °C 2.1 °C 1018.5 hPa Calm     82% 0 mm
14:49 5 °C 2.2 °C 1018.2 hPa Calm     82% 0 mm
14:54 4.9 °C 2.1 °C 1018.2 hPa Calm     82% 0 mm
14:59 4.9 °C 2.1 °C 1018.2 hPa Calm     82% 0 mm
15:04 4.9 °C 2.1 °C 1018.2 hPa Calm     82% 0 mm
15:09 4.9 °C 2.1 °C 1018.2 hPa Calm     82% 0 mm
15:14 5.1 °C 2.2 °C 1018.2 hPa Calm     82% 0 mm
15:24 5 °C 2.2 °C 1018.2 hPa Calm   3.2 km/h 82% 0 mm
15:29 4.9 °C 2.1 °C 1018.2 hPa Calm   1.6 km/h 82% 0 mm
15:34 4.9 °C 2.1 °C 1018.5 hPa Calm   1.6 km/h 82% 0 mm
15:39 4.8 °C 2 °C 1018.5 hPa Calm     82% 0 mm
15:44 4.8 °C 1.9 °C 1018.5 hPa Calm     82% 0 mm
15:54 4.7 °C 1.8 °C 1018.5 hPa Calm   1.6 km/h 82% 0 mm
15:59 4.6 °C 1.8 °C 1018.5 hPa Calm     82% 0 mm
16:09 4.4 °C 1.8 °C 1018.5 hPa Calm     83% 0 mm
16:14 4.4 °C 1.8 °C 1018.5 hPa Calm     83% 0 mm
16:19 4.4 °C 1.8 °C 1018.5 hPa Calm     83% 0 mm
16:24 4.4 °C 1.8 °C 1018.5 hPa Calm     83% 0 mm
16:29 4.4 °C 1.8 °C 1018.5 hPa SW 1.6 km/h 3.2 km/h 83% 0 mm
16:34 4.4 °C 1.8 °C 1018.5 hPa Calm   3.2 km/h 83% 0 mm
16:39 4.3 °C 1.7 °C 1018.5 hPa Calm   3.2 km/h 83% 0 mm
16:44 4.3 °C 1.8 °C 1018.5 hPa Calm   3.2 km/h 84% 0 mm
17:04 4.1 °C 1.6 °C 1018.5 hPa Calm     84% 0 mm
17:14 4 °C 1.6 °C 1018.8 hPa Calm     84% 0 mm
17:19 4 °C 1.6 °C 1018.5 hPa Calm     84% 0 mm
17:29 4.1 °C 1.8 °C 1018.8 hPa Calm   6.4 km/h 85% 0 mm
17:34 4 °C 1.7 °C 1018.8 hPa Calm   1.6 km/h 85% 0 mm
17:39 3.9 °C 1.6 °C 1018.8 hPa Calm   1.6 km/h 85% 0 mm
17:44 3.8 °C 1.6 °C 1018.8 hPa Calm     85% 0 mm
17:49 3.8 °C 1.6 °C 1018.8 hPa Calm     85% 0 mm
17:54 3.8 °C 1.6 °C 1018.8 hPa Calm   3.2 km/h 85% 0 mm
18:09 3.7 °C 1.6 °C 1018.8 hPa Calm     86% 0 mm
18:14 3.7 °C 1.6 °C 1018.8 hPa Calm     86% 0 mm
18:19 3.6 °C 1.7 °C 1018.8 hPa Calm     87% 0 mm
18:39 3.5 °C 1.7 °C 1018.8 hPa Calm     88% 0 mm
18:44 3.4 °C 1.7 °C 1018.8 hPa Calm     88% 0 mm
18:49 3.4 °C 1.7 °C 1018.8 hPa Calm     88% 0 mm
18:54 3.4 °C 1.6 °C 1018.8 hPa Calm     88% 0 mm
18:59 3.4 °C 1.7 °C 1018.8 hPa Calm     88% 0 mm
19:04 3.4 °C 1.6 °C 1018.8 hPa Calm     88% 0 mm
19:09 3.3 °C 1.7 °C 1018.8 hPa Calm   3.2 km/h 89% 0 mm
19:14 3.3 °C 1.7 °C 1018.8 hPa Calm     89% 0 mm
19:19 3.3 °C 1.6 °C 1018.8 hPa Calm     89% 0 mm
19:24 3.2 °C 1.6 °C 1018.8 hPa Calm     89% 0 mm
19:29 3.2 °C 1.6 °C 1018.8 hPa Calm     89% 0 mm
19:34 3.2 °C 1.6 °C 1018.8 hPa Calm     89% 0 mm
19:39 3.1 °C 1.5 °C 1018.8 hPa Calm     89% 0 mm
19:44 3.2 °C 1.6 °C 1018.8 hPa Calm     89% 0 mm
19:49 3.2 °C 1.6 °C 1018.8 hPa Calm     89% 0 mm
19:54 3.2 °C 1.6 °C 1018.8 hPa Calm     89% 0 mm
19:59 3.2 °C 1.7 °C 1018.8 hPa Calm     90% 0 mm
20:04 3.2 °C 1.7 °C 1018.8 hPa Calm     90% 0 mm
20:09 3.2 °C 1.7 °C 1018.8 hPa Calm     90% 0 mm
20:14 3.2 °C 1.7 °C 1018.8 hPa Calm     90% 0 mm
20:19 3.2 °C 1.7 °C 1018.5 hPa Calm     90% 0 mm
20:24 3.1 °C 1.6 °C 1018.5 hPa Calm     90% 0 mm
20:29 3.1 °C 1.6 °C 1018.5 hPa Calm     90% 0 mm
20:34 3 °C 1.5 °C 1018.8 hPa Calm     90% 0 mm
20:39 2.9 °C 1.4 °C 1018.8 hPa Calm     90% 0 mm
20:44 2.8 °C 1.3 °C 1018.8 hPa Calm     90% 0 mm
20:49 2.8 °C 1.3 °C 1018.8 hPa Calm     90% 0 mm
20:54 2.8 °C 1.3 °C 1018.8 hPa Calm     90% 0 mm
20:59 2.8 °C 1.3 °C 1018.8 hPa Calm     90% 0 mm
21:04 2.8 °C 1.3 °C 1018.8 hPa Calm     90% 0 mm
21:09 2.7 °C 1.2 °C 1018.8 hPa Calm     90% 0 mm
21:14 2.7 °C 1.2 °C 1019.2 hPa Calm     90% 0 mm
21:19 2.7 °C 1.2 °C 1018.8 hPa Calm     90% 0 mm
21:24 2.7 °C 1.3 °C 1018.8 hPa Calm     91% 0 mm
21:29 2.7 °C 1.3 °C 1018.8 hPa Calm     91% 0 mm
21:34 2.7 °C 1.4 °C 1018.8 hPa Calm     91% 0 mm
21:39 2.8 °C 1.5 °C 1018.8 hPa Calm     91% 0 mm
21:44 2.8 °C 1.5 °C 1018.5 hPa Calm     91% 0 mm
21:49 2.8 °C 1.5 °C 1018.8 hPa Calm     91% 0 mm
21:59 2.9 °C 1.6 °C 1018.8 hPa Calm     91% 0 mm
22:09 2.9 °C 1.6 °C 1018.5 hPa Calm     91% 0 mm
22:19 2.8 °C 1.5 °C 1018.5 hPa Calm     91% 0 mm
22:29 2.8 °C 1.5 °C 1018.5 hPa Calm     91% 0 mm
22:34 2.8 °C 1.5 °C 1018.8 hPa Calm     91% 0.25 mm
22:39 2.9 °C 1.6 °C 1018.5 hPa Calm     91% 0.25 mm
22:44 2.9 °C 1.6 °C 1018.8 hPa Calm     91% 0.25 mm
22:59 2.7 °C 1.4 °C 1018.8 hPa Calm     91% 0.25 mm
23:04 2.8 °C 1.5 °C 1018.5 hPa Calm     91% 0.25 mm
23:14 2.9 °C 1.6 °C 1018.5 hPa Calm     91% 0.25 mm
23:19 3 °C 1.7 °C 1018.5 hPa Calm     91% 0.25 mm
23:24 3.1 °C 1.7 °C 1018.5 hPa Calm     91% 0.25 mm
23:29 3.1 °C 1.7 °C 1018.5 hPa Calm     91% 0.25 mm
23:44 3.1 °C 1.9 °C 1018.5 hPa Calm     92% 0 mm
23:49 3.1 °C 1.9 °C 1018.5 hPa Calm     92% 0 mm
23:54 3.1 °C 1.9 °C 1018.5 hPa Calm     92% 0 mm
23:59 3.1 °C 1.9 °C 1018.5 hPa Calm     92% 0 mm
Buffalo, New York, USA
Compliments of Weather Underground - 2.25 mb